Time;durP1;ratioP1;P1;durP2;ratioP2;P2;SDS_P1;SDS_P2;PMS_P1;PMS_P2;Temp;Humidity;BMP_temperature;BMP_pressure;BME280_temperature;BME280_humidity;BME280_pressure;Samples;Min_cycle;Max_cycle;Signal;HPM_P1;HPM_P2
2023/01/17 00:01:07;;;;;;;6.05;5.53;;;6.30;99.90;;;;;;2107852;28;20028;-71
2023/01/17 00:02:08;;;;;;;6.25;5.35;;;6.30;99.90;;;;;;2107222;28;20020;-71
2023/01/17 00:03:08;;;;;;;6.38;5.38;;;6.30;99.90;;;;;;2108114;28;20389;-71
2023/01/17 00:10:51;;;;;;;5.20;4.75;;;6.30;99.90;;;;;;2108932;28;20039;-71
2023/01/17 00:11:51;;;;;;;5.30;4.72;;;6.30;99.90;;;;;;2108624;28;20024;-71
2023/01/17 00:12:57;;;;;;;5.10;4.70;;;6.30;99.90;;;;;;2106586;28;20731;-71
2023/01/17 00:13:59;;;;;;;5.57;4.90;;;6.30;99.90;;;;;;2108743;28;20058;-71
2023/01/17 00:15:00;;;;;;;5.07;4.60;;;6.20;99.90;;;;;;2107224;28;20502;-71
2023/01/17 00:16:01;;;;;;;4.70;4.28;;;6.20;99.90;;;;;;2107593;28;20352;-71
2023/01/17 00:17:01;;;;;;;5.90;4.57;;;6.20;99.90;;;;;;2109054;28;20058;-71
2023/01/17 00:18:02;;;;;;;4.55;4.15;;;6.20;99.90;;;;;;2108942;28;20032;-71
2023/01/17 00:26:15;;;;;;;5.65;4.05;;;6.10;99.90;;;;;;2106921;28;20032;-71
2023/01/17 01:33:46;;;;;;;4.85;4.45;;;5.80;99.90;;;;;;2108809;28;20486;-71
2023/01/17 01:34:46;;;;;;;4.60;4.22;;;5.70;99.90;;;;;;2109822;28;20379;-71
2023/01/17 01:35:52;;;;;;;4.32;4.03;;;5.80;99.90;;;;;;2109862;28;20413;-71
2023/01/17 01:36:53;;;;;;;4.30;4.00;;;5.80;99.90;;;;;;2110091;28;20027;-71
2023/01/17 01:37:54;;;;;;;3.80;3.50;;;5.80;99.90;;;;;;2109694;28;20024;-71
2023/01/17 01:38:55;;;;;;;4.78;3.90;;;5.80;99.90;;;;;;2110028;28;20028;-71
2023/01/17 01:39:56;;;;;;;4.30;3.67;;;5.80;99.90;;;;;;2110021;28;20107;-71
2023/01/17 01:40:56;;;;;;;3.22;3.00;;;5.80;99.90;;;;;;2108153;28;20027;-71
2023/01/17 01:41:57;;;;;;;3.70;3.35;;;5.70;99.90;;;;;;2108447;28;20020;-71
2023/01/17 01:42:59;;;;;;;3.58;3.25;;;5.70;99.90;;;;;;2109013;28;20073;-71
2023/01/17 01:43:59;;;;;;;6.03;3.53;;;5.70;99.90;;;;;;2109816;28;20031;-71
2023/01/17 01:45:00;;;;;;;3.28;2.88;;;5.70;99.90;;;;;;2108939;28;20719;-71
2023/01/17 01:46:00;;;;;;;3.22;2.63;;;5.80;99.90;;;;;;2109314;28;20024;-71
2023/01/17 01:47:01;;;;;;;2.97;2.58;;;5.80;99.90;;;;;;2109004;28;20028;-70
2023/01/17 01:48:27;;;;;;;3.13;2.80;;;5.80;99.90;;;;;;2109562;28;20028;-71
2023/01/17 01:49:29;;;;;;;3.10;2.60;;;5.80;99.90;;;;;;2107739;28;20030;-71
2023/01/17 01:50:33;;;;;;;2.92;2.25;;;5.80;99.90;;;;;;2106154;28;20494;-71
2023/01/17 01:51:39;;;;;;;2.97;2.55;;;5.80;99.90;;;;;;2107545;28;20024;-71
2023/01/17 01:52:45;;;;;;;2.67;2.47;;;5.80;99.90;;;;;;2108356;28;20540;-71
2023/01/17 01:53:49;;;;;;;3.60;2.20;;;5.80;99.90;;;;;;2109816;28;20027;-71
2023/01/17 01:54:57;;;;;;;4.03;2.30;;;5.80;99.90;;;;;;2109732;27;20031;-71
2023/01/17 01:55:59;;;;;;;4.28;2.53;;;5.80;99.90;;;;;;2108721;28;20110;-71
2023/01/17 01:57:02;;;;;;;3.25;2.33;;;5.70;99.90;;;;;;2108219;28;20024;-71
2023/01/17 01:58:10;;;;;;;4.78;2.50;;;5.70;99.90;;;;;;2107179;28;20024;-71
2023/01/17 01:59:14;;;;;;;3.85;2.42;;;5.80;99.90;;;;;;2109457;28;20059;-71
2023/01/17 02:00:20;;;;;;;5.18;2.60;;;5.80;99.90;;;;;;2108404;28;20028;-70
2023/01/17 02:01:21;;;;;;;3.10;1.73;;;5.80;99.90;;;;;;2109962;28;21787;-70
2023/01/17 02:02:21;;;;;;;6.70;3.10;;;5.80;99.90;;;;;;2108910;28;20020;-70
2023/01/17 02:03:28;;;;;;;4.18;2.28;;;5.80;99.90;;;;;;2107254;28;20027;-70
2023/01/17 02:04:28;;;;;;;2.17;1.85;;;5.80;99.90;;;;;;2108768;28;20683;-70
2023/01/17 02:05:30;;;;;;;8.75;2.60;;;5.70;99.90;;;;;;2110630;28;20490;-70
2023/01/17 02:06:36;;;;;;;5.30;2.75;;;5.70;99.90;;;;;;2110697;28;20038;-70
2023/01/17 02:07:49;;;;;;;4.07;2.58;;;5.70;99.90;;;;;;2109115;28;20494;-70
2023/01/17 02:08:50;;;;;;;5.85;3.50;;;5.70;99.90;;;;;;2110898;28;20088;-70
2023/01/17 02:09:52;;;;;;;5.57;3.85;;;5.70;99.90;;;;;;2109125;28;20081;-70
2023/01/17 02:10:54;;;;;;;7.70;4.28;;;5.70;99.90;;;;;;2108828;27;20060;-70
2023/01/17 02:11:54;;;;;;;7.07;4.85;;;5.70;99.90;;;;;;2110065;27;20929;-70
2023/01/17 02:12:55;;;;;;;4.00;3.60;;;5.70;99.90;;;;;;2109192;28;20496;-70
2023/01/17 02:13:56;;;;;;;5.20;4.03;;;5.70;99.90;;;;;;2109715;28;20024;-70
2023/01/17 02:14:57;;;;;;;5.93;4.65;;;5.70;99.90;;;;;;2107793;28;20015;-70
2023/01/17 02:16:23;;;;;;;5.38;4.20;;;5.60;99.90;;;;;;2109375;28;20031;-70
2023/01/17 02:17:50;;;;;;;6.25;4.90;;;5.60;99.90;;;;;;2108695;28;20030;-70
2023/01/17 02:18:51;;;;;;;5.68;4.47;;;5.50;99.90;;;;;;2102407;28;20032;-70
2023/01/17 02:20:06;;;;;;;5.32;4.75;;;5.50;99.90;;;;;;2108903;28;20515;-70
2023/01/17 02:21:20;;;;;;;5.80;4.68;;;5.40;99.90;;;;;;2112399;27;21328;-70
2023/01/17 02:22:50;;;;;;;6.38;4.97;;;5.40;99.90;;;;;;2111042;28;20027;-70
2023/01/17 02:24:28;;;;;;;6.00;5.40;;;5.30;99.90;;;;;;2109407;28;20106;-70
2023/01/17 02:25:41;;;;;;;4.97;4.47;;;5.30;99.90;;;;;;2110367;28;20490;-70
2023/01/17 02:26:53;;;;;;;5.55;4.55;;;5.30;99.90;;;;;;2109328;28;20027;-70
2023/01/17 02:28:21;;;;;;;4.82;4.28;;;5.30;99.90;;;;;;2109298;28;20023;-70
2023/01/17 02:29:43;;;;;;;4.68;4.28;;;5.20;99.90;;;;;;2108208;28;20964;-70
2023/01/17 02:31:11;;;;;;;3.83;3.45;;;5.20;99.90;;;;;;2109619;28;20055;-70
2023/01/17 02:32:40;;;;;;;3.15;2.70;;;5.10;99.90;;;;;;2107549;28;20031;-70
2023/01/17 02:33:58;;;;;;;3.08;2.70;;;5.10;99.90;;;;;;2107160;28;20044;-70
2023/01/17 02:35:22;;;;;;;3.05;2.75;;;5.10;99.90;;;;;;2108844;28;20469;-70
2023/01/17 02:36:36;;;;;;;2.17;1.98;;;5.10;99.90;;;;;;2103368;28;20042;-70
2023/01/17 02:37:49;;;;;;;2.80;2.20;;;5.10;99.90;;;;;;2110696;28;20016;-70
2023/01/17 02:39:19;;;;;;;2.45;1.92;;;5.00;99.90;;;;;;2108046;28;20092;-70
2023/01/17 02:40:29;;;;;;;2.03;1.60;;;5.00;99.90;;;;;;2106557;28;20016;-70
2023/01/17 02:41:42;;;;;;;1.65;1.55;;;5.00;99.90;;;;;;2109875;27;20020;-70
2023/01/17 02:42:49;;;;;;;1.45;1.35;;;5.00;99.90;;;;;;2108169;28;20076;-70
2023/01/17 02:43:51;;;;;;;2.03;1.60;;;5.00;99.90;;;;;;2107973;28;20020;-70
2023/01/17 02:44:52;;;;;;;1.45;1.35;;;5.00;99.90;;;;;;2108264;28;20107;-70
2023/01/17 02:45:52;;;;;;;1.70;1.38;;;5.00;99.90;;;;;;2106732;28;20654;-70
2023/01/17 02:46:55;;;;;;;1.20;1.10;;;5.00;99.90;;;;;;2110474;28;20023;-70
2023/01/17 02:47:56;;;;;;;2.22;1.20;;;5.00;99.90;;;;;;2109008;28;20064;-70
2023/01/17 02:48:57;;;;;;;0.90;0.90;;;5.00;99.90;;;;;;2108999;28;20065;-70
2023/01/17 02:50:07;;;;;;;1.10;1.00;;;5.00;99.90;;;;;;2098600;28;20016;-70
2023/01/17 02:51:17;;;;;;;0.90;0.90;;;5.00;99.90;;;;;;2109086;28;20586;-69
2023/01/17 02:52:34;;;;;;;1.73;1.20;;;5.00;99.90;;;;;;2109131;28;20106;-70
2023/01/17 02:53:59;;;;;;;1.25;1.15;;;5.00;99.90;;;;;;2111236;28;20265;-70
2023/01/17 02:55:41;;;;;;;0.60;0.60;;;5.00;99.90;;;;;;2109113;28;20363;-70
2023/01/17 02:57:02;;;;;;;0.55;0.55;;;4.90;99.90;;;;;;2100375;28;20031;-70
2023/01/17 02:58:31;;;;;;;0.60;0.60;;;4.90;99.90;;;;;;2101539;28;20106;-70
2023/01/17 02:59:32;;;;;;;0.60;0.60;;;4.80;99.90;;;;;;2106482;28;20024;-70
2023/01/17 03:00:35;;;;;;;0.73;0.73;;;4.80;99.90;;;;;;2107880;28;20810;-70
2023/01/17 03:01:53;;;;;;;0.90;0.90;;;4.70;99.90;;;;;;2108333;28;20020;-70
2023/01/17 03:03:04;;;;;;;0.80;0.80;;;4.70;99.90;;;;;;2108345;28;20485;-70
2023/01/17 03:04:07;;;;;;;1.17;1.08;;;4.70;99.90;;;;;;2107256;28;20106;-70
2023/01/17 03:05:26;;;;;;;1.45;1.08;;;4.70;99.90;;;;;;2107714;28;20172;-70
2023/01/17 03:06:45;;;;;;;1.20;1.10;;;4.60;99.90;;;;;;2109487;28;20019;-70
2023/01/17 03:07:47;;;;;;;1.02;1.02;;;4.60;99.90;;;;;;2108041;28;20035;-70
2023/01/17 03:08:50;;;;;;;1.40;1.30;;;4.50;99.90;;;;;;2108664;28;20443;-70
2023/01/17 03:09:58;;;;;;;1.77;1.40;;;4.50;99.90;;;;;;2107114;28;20023;-70
2023/01/17 03:10:58;;;;;;;2.17;1.98;;;4.50;99.90;;;;;;2105806;28;20023;-70
2023/01/17 03:11:59;;;;;;;1.92;1.83;;;4.50;99.90;;;;;;2109708;28;20169;-70
2023/01/17 03:13:01;;;;;;;1.70;1.60;;;4.40;99.90;;;;;;2109065;28;20036;-70
2023/01/17 03:14:01;;;;;;;1.70;1.60;;;4.40;99.90;;;;;;2107448;28;20103;-70
2023/01/17 03:15:03;;;;;;;3.10;1.98;;;4.40;99.90;;;;;;2107192;28;20027;-70
2023/01/17 03:16:08;;;;;;;2.30;2.10;;;4.30;99.90;;;;;;2108567;28;20024;-70
2023/01/17 03:17:08;;;;;;;3.05;2.72;;;4.30;99.90;;;;;;2107108;28;20024;-70
2023/01/17 03:18:14;;;;;;;1.98;1.88;;;4.30;99.90;;;;;;2108572;28;20026;-70
2023/01/17 03:19:15;;;;;;;1.92;1.83;;;4.30;99.90;;;;;;2108714;28;20161;-70
2023/01/17 03:20:16;;;;;;;2.20;2.00;;;4.20;99.90;;;;;;2107113;28;20028;-70
2023/01/17 03:21:16;;;;;;;2.35;2.15;;;4.20;99.90;;;;;;2107644;28;20081;-70
2023/01/17 03:22:17;;;;;;;3.35;3.10;;;4.20;99.90;;;;;;2110432;28;20126;-70
2023/01/17 03:23:17;;;;;;;3.42;2.63;;;4.20;99.90;;;;;;2107716;28;20643;-70
2023/01/17 03:24:18;;;;;;;3.08;2.30;;;4.20;99.90;;;;;;2108940;28;20062;-70
2023/01/17 03:25:18;;;;;;;2.95;2.70;;;4.20;99.90;;;;;;2107658;28;20024;-70
2023/01/17 03:26:19;;;;;;;3.10;2.80;;;4.20;99.90;;;;;;2109527;28;20032;-70
2023/01/17 03:27:20;;;;;;;3.22;2.92;;;4.20;99.90;;;;;;2106615;28;20372;-70
2023/01/17 03:28:20;;;;;;;4.15;3.42;;;4.20;99.90;;;;;;2108061;28;20035;-70
2023/01/17 03:29:21;;;;;;;4.28;3.40;;;4.20;99.90;;;;;;2108460;28;20380;-70
2023/01/17 03:30:21;;;;;;;4.22;3.42;;;4.10;99.90;;;;;;2108201;28;20012;-70
2023/01/17 03:31:22;;;;;;;5.70;4.10;;;4.10;99.90;;;;;;2110277;28;20025;-70
2023/01/17 03:32:23;;;;;;;5.22;4.07;;;4.10;99.90;;;;;;2109971;28;20027;-70
2023/01/17 03:33:24;;;;;;;4.10;3.70;;;4.10;99.90;;;;;;2108686;28;20064;-70
2023/01/17 03:34:24;;;;;;;4.05;3.58;;;4.10;99.90;;;;;;2107826;28;20106;-70
2023/01/17 03:35:27;;;;;;;4.07;3.67;;;4.10;99.90;;;;;;2110229;28;20024;-70
2023/01/17 03:36:27;;;;;;;4.72;4.05;;;4.10;99.90;;;;;;2107770;28;20103;-70
2023/01/17 03:37:28;;;;;;;4.72;4.10;;;4.10;99.90;;;;;;2108482;28;20020;-70
2023/01/17 03:38:29;;;;;;;4.90;4.47;;;4.10;99.90;;;;;;2106834;28;20111;-70
2023/01/17 03:39:29;;;;;;;6.20;4.80;;;4.10;99.90;;;;;;2107710;28;20054;-70
2023/01/17 03:40:30;;;;;;;4.60;4.20;;;4.10;99.90;;;;;;2108709;28;20024;-70
2023/01/17 03:41:30;;;;;;;5.78;4.80;;;4.10;99.90;;;;;;2108869;28;20085;-70
2023/01/17 03:42:31;;;;;;;6.30;5.32;;;4.10;99.90;;;;;;2109562;28;20452;-70
2023/01/17 03:43:31;;;;;;;7.63;6.93;;;4.10;99.90;;;;;;2109740;28;20038;-70
2023/01/17 03:44:33;;;;;;;7.93;6.97;;;4.10;99.90;;;;;;2108261;28;20023;-70
2023/01/17 03:45:33;;;;;;;5.43;4.93;;;4.10;99.90;;;;;;2109976;28;20024;-70
2023/01/17 03:46:35;;;;;;;5.65;5.03;;;4.20;99.90;;;;;;2107991;28;20043;-70
2023/01/17 03:47:35;;;;;;;5.38;4.90;;;4.20;99.90;;;;;;2107832;28;20035;-70
2023/01/17 03:48:40;;;;;;;6.10;5.30;;;4.10;99.90;;;;;;2107669;28;20039;-70
2023/01/17 03:49:40;;;;;;;9.30;5.20;;;4.20;99.90;;;;;;2108895;28;20031;-70
2023/01/17 03:50:41;;;;;;;6.43;5.43;;;4.20;99.90;;;;;;2110811;28;20486;-70
2023/01/17 03:51:41;;;;;;;6.68;5.88;;;4.20;99.90;;;;;;2109763;28;20080;-70
2023/01/17 03:52:42;;;;;;;6.88;5.88;;;4.10;99.90;;;;;;2109406;28;20020;-70
2023/01/17 03:53:45;;;;;;;6.13;5.53;;;4.10;99.90;;;;;;2109044;28;20020;-70
2023/01/17 03:54:47;;;;;;;5.50;4.95;;;4.10;99.90;;;;;;2110413;28;20023;-70
2023/01/17 03:55:47;;;;;;;5.25;4.85;;;4.10;99.90;;;;;;2107438;28;20012;-70
2023/01/17 03:56:48;;;;;;;5.95;5.35;;;4.10;99.90;;;;;;2110719;28;20051;-70
2023/01/17 03:57:48;;;;;;;5.78;5.25;;;4.10;99.90;;;;;;2107937;28;20032;-70
2023/01/17 03:58:50;;;;;;;7.90;5.55;;;4.10;99.90;;;;;;2107481;28;20123;-70
2023/01/17 03:59:50;;;;;;;6.03;5.53;;;4.10;99.90;;;;;;2107831;28;20111;-70
2023/01/17 04:00:51;;;;;;;5.97;5.47;;;4.10;99.90;;;;;;2109097;28;20027;-70
2023/01/17 04:01:51;;;;;;;7.32;5.88;;;4.00;99.90;;;;;;2109105;28;20035;-70
2023/01/17 04:02:52;;;;;;;6.40;5.75;;;4.10;99.90;;;;;;2108259;28;20023;-70
2023/01/17 04:03:53;;;;;;;6.05;5.45;;;4.10;99.90;;;;;;2106166;28;20026;-70
2023/01/17 04:04:53;;;;;;;8.85;6.13;;;4.10;99.90;;;;;;2108584;28;20064;-70
2023/01/17 04:05:54;;;;;;;6.30;5.70;;;4.10;99.90;;;;;;2108392;28;20095;-70
2023/01/17 04:06:55;;;;;;;6.18;5.68;;;4.10;99.90;;;;;;2106689;28;20463;-70
2023/01/17 04:07:55;;;;;;;6.80;6.20;;;4.10;99.90;;;;;;2109394;28;20032;-70
2023/01/17 04:08:56;;;;;;;7.50;6.60;;;4.10;99.90;;;;;;2108226;28;20483;-70
2023/01/17 04:09:56;;;;;;;7.18;6.50;;;4.10;99.90;;;;;;2107391;28;20023;-70
2023/01/17 04:10:57;;;;;;;7.82;7.03;;;4.10;99.90;;;;;;2108591;28;20027;-70
2023/01/17 04:11:57;;;;;;;8.40;7.30;;;4.10;99.90;;;;;;2109504;28;20039;-70
2023/01/17 04:12:58;;;;;;;9.55;7.93;;;4.20;99.90;;;;;;2107842;28;20454;-70
2023/01/17 04:13:58;;;;;;;7.57;6.80;;;4.20;99.90;;;;;;2108987;28;20024;-70
2023/01/17 04:14:59;;;;;;;8.60;7.68;;;4.20;99.90;;;;;;2108418;28;20030;-70
2023/01/17 04:15:59;;;;;;;9.90;7.97;;;4.20;99.90;;;;;;2110345;28;20035;-70
2023/01/17 04:17:01;;;;;;;8.98;8.07;;;4.20;99.90;;;;;;2108085;28;20031;-70
2023/01/17 04:18:03;;;;;;;10.27;8.20;;;4.20;99.90;;;;;;2106155;28;20016;-70
2023/01/17 04:19:04;;;;;;;7.80;7.00;;;4.20;99.90;;;;;;2109660;28;20544;-70
2023/01/17 04:20:05;;;;;;;9.07;7.07;;;4.30;99.90;;;;;;2109062;28;20497;-70
2023/01/17 04:21:06;;;;;;;9.25;7.63;;;4.30;99.90;;;;;;2110802;28;20153;-70
2023/01/17 04:22:07;;;;;;;8.38;7.60;;;4.30;99.90;;;;;;2111040;27;20088;-70
2023/01/17 04:23:07;;;;;;;8.48;6.88;;;4.30;99.90;;;;;;2107974;28;20069;-70
2023/01/17 04:24:08;;;;;;;7.85;7.13;;;4.30;99.90;;;;;;2110511;28;20098;-70
2023/01/17 04:25:08;;;;;;;7.57;6.85;;;4.30;99.90;;;;;;2110941;28;20024;-70
2023/01/17 04:26:11;;;;;;;8.07;6.90;;;4.30;99.90;;;;;;2110364;28;20023;-70
2023/01/17 04:27:13;;;;;;;8.05;6.80;;;4.30;99.90;;;;;;2110653;28;20024;-70
2023/01/17 04:28:13;;;;;;;8.13;6.40;;;4.30;99.90;;;;;;2108379;28;20034;-70
2023/01/17 04:29:14;;;;;;;8.73;6.60;;;4.40;99.90;;;;;;2109051;28;20032;-70
2023/01/17 04:30:14;;;;;;;6.65;5.95;;;4.40;99.90;;;;;;2106958;28;20056;-70
2023/01/17 04:31:16;;;;;;;8.48;6.35;;;4.40;99.90;;;;;;2108249;28;20035;-70
2023/01/17 04:32:16;;;;;;;7.70;5.80;;;4.40;99.90;;;;;;2107196;28;20074;-70
2023/01/17 04:33:17;;;;;;;6.43;5.15;;;4.40;99.90;;;;;;2109011;28;20027;-70
2023/01/17 04:34:18;;;;;;;5.28;4.78;;;4.40;99.90;;;;;;2109130;28;20039;-70
2023/01/17 04:35:18;;;;;;;7.78;5.20;;;4.40;99.90;;;;;;2108791;28;20099;-70
2023/01/17 04:36:19;;;;;;;4.70;4.30;;;4.40;99.90;;;;;;2111092;28;20031;-70
2023/01/17 04:37:19;;;;;;;4.78;4.25;;;4.40;99.90;;;;;;2110544;28;20236;-70
2023/01/17 04:38:21;;;;;;;4.38;3.97;;;4.40;99.90;;;;;;2109896;28;20039;-70
2023/01/17 04:39:21;;;;;;;4.50;4.10;;;4.40;99.90;;;;;;2110293;28;20506;-70
2023/01/17 04:40:22;;;;;;;4.13;3.75;;;4.40;99.90;;;;;;2109781;28;20485;-70
2023/01/17 04:41:23;;;;;;;5.80;3.35;;;4.40;99.90;;;;;;2110848;28;20080;-70
2023/01/17 04:42:23;;;;;;;4.38;3.35;;;4.40;99.90;;;;;;2111030;28;20066;-70
2023/01/17 04:43:24;;;;;;;3.53;3.22;;;4.40;99.90;;;;;;2110470;28;20036;-70
2023/01/17 04:44:24;;;;;;;4.20;3.45;;;4.40;99.90;;;;;;2109551;28;20114;-70
2023/01/17 04:45:25;;;;;;;4.43;3.13;;;4.40;99.90;;;;;;2110411;28;20399;-70
2023/01/17 04:46:25;;;;;;;4.63;3.25;;;4.40;99.90;;;;;;2108965;28;20027;-70
2023/01/17 04:47:26;;;;;;;3.45;3.00;;;4.40;99.90;;;;;;2108377;28;20103;-70
2023/01/17 04:48:27;;;;;;;4.63;3.00;;;4.40;99.90;;;;;;2108527;28;20051;-70
2023/01/17 04:49:27;;;;;;;5.47;2.50;;;4.40;99.90;;;;;;2108446;28;20043;-70
2023/01/17 04:50:28;;;;;;;4.97;2.97;;;4.40;99.90;;;;;;2109891;28;20023;-70
2023/01/17 04:51:28;;;;;;;3.03;2.47;;;4.40;99.90;;;;;;2109198;28;20040;-70
2023/01/17 04:52:29;;;;;;;3.88;2.72;;;4.40;99.90;;;;;;2111270;28;20103;-70
2023/01/17 04:53:29;;;;;;;5.20;2.83;;;4.40;99.90;;;;;;2110847;27;20022;-70
2023/01/17 04:54:30;;;;;;;4.95;3.20;;;4.40;99.90;;;;;;2108739;28;20043;-70
2023/01/17 04:55:31;;;;;;;4.32;3.25;;;4.40;99.90;;;;;;2110374;28;20019;-70
2023/01/17 04:56:31;;;;;;;6.68;3.20;;;4.40;99.90;;;;;;2108442;27;20389;-70
2023/01/17 04:57:32;;;;;;;7.80;3.72;;;4.40;99.90;;;;;;2109655;28;20470;-70
2023/01/17 04:58:32;;;;;;;8.18;3.33;;;4.40;99.90;;;;;;2110069;28;20020;-70
2023/01/17 04:59:33;;;;;;;7.63;4.18;;;4.40;99.90;;;;;;2108544;27;20039;-70
2023/01/17 05:00:33;;;;;;;6.35;3.40;;;4.40;99.90;;;;;;2108196;28;20031;-70
2023/01/17 05:01:34;;;;;;;4.45;4.03;;;4.40;99.90;;;;;;2108505;28;20095;-70
2023/01/17 05:02:34;;;;;;;6.45;4.00;;;4.40;99.90;;;;;;2108856;28;20027;-70
2023/01/17 05:03:35;;;;;;;5.85;4.07;;;4.50;99.90;;;;;;2110382;28;21755;-70
2023/01/17 05:04:35;;;;;;;5.88;4.22;;;4.50;99.90;;;;;;2109158;28;20317;-70
2023/01/17 05:05:36;;;;;;;6.10;4.10;;;4.50;99.90;;;;;;2109287;28;20031;-70
2023/01/17 05:06:36;;;;;;;6.30;4.65;;;4.50;99.90;;;;;;2107796;28;20100;-70
2023/01/17 05:07:37;;;;;;;10.75;4.50;;;4.40;99.90;;;;;;2107982;28;20023;-70
2023/01/17 05:08:37;;;;;;;4.72;4.30;;;4.40;99.90;;;;;;2109359;28;20087;-70
2023/01/17 05:09:38;;;;;;;6.55;4.72;;;4.50;99.90;;;;;;2109588;28;20039;-70
2023/01/17 05:10:39;;;;;;;7.70;5.03;;;4.40;99.90;;;;;;2108063;28;20015;-70
2023/01/17 05:11:40;;;;;;;7.57;5.00;;;4.40;99.90;;;;;;2109093;28;20115;-70
2023/01/17 05:12:40;;;;;;;5.97;4.75;;;4.40;99.90;;;;;;2109290;28;20058;-70
2023/01/17 05:13:41;;;;;;;9.98;5.00;;;4.40;99.90;;;;;;2109238;28;20086;-70
2023/01/17 05:14:41;;;;;;;5.95;4.95;;;4.50;99.90;;;;;;2109211;28;20023;-70
2023/01/17 05:15:42;;;;;;;10.45;5.20;;;4.40;99.90;;;;;;2109577;28;20020;-70
2023/01/17 05:16:42;;;;;;;8.45;5.30;;;4.40;99.90;;;;;;2109295;28;20024;-70
2023/01/17 05:17:43;;;;;;;11.35;5.72;;;4.40;99.90;;;;;;2108709;28;20109;-70
2023/01/17 05:18:43;;;;;;;9.10;6.13;;;4.40;99.90;;;;;;2109539;28;20058;-70
2023/01/17 05:19:44;;;;;;;6.38;5.38;;;4.40;99.90;;;;;;2108848;28;20028;-70
2023/01/17 05:20:45;;;;;;;7.40;6.20;;;4.50;99.90;;;;;;2108383;28;20114;-70
2023/01/17 05:21:46;;;;;;;10.68;6.78;;;4.50;99.90;;;;;;2108536;28;20020;-70
2023/01/17 05:22:56;;;;;;;6.82;6.10;;;4.50;99.90;;;;;;2107703;28;20371;-70
2023/01/17 05:23:57;;;;;;;7.53;5.78;;;4.50;99.90;;;;;;2108304;28;20028;-70
2023/01/17 05:24:57;;;;;;;7.60;6.47;;;4.40;99.90;;;;;;2109028;28;20102;-70
2023/01/17 05:25:58;;;;;;;7.70;6.00;;;4.50;99.90;;;;;;2108830;28;20036;-70
2023/01/17 05:27:01;;;;;;;9.48;6.68;;;4.40;99.90;;;;;;2109509;28;20028;-70
2023/01/17 05:28:02;;;;;;;6.85;6.05;;;4.50;99.90;;;;;;2109851;28;20068;-70
2023/01/17 05:29:03;;;;;;;7.65;6.80;;;4.40;99.90;;;;;;2107874;28;20115;-70
2023/01/17 05:30:04;;;;;;;8.00;6.93;;;4.50;99.90;;;;;;2106909;28;20028;-70
2023/01/17 05:31:05;;;;;;;8.30;7.30;;;4.50;99.90;;;;;;2109895;28;20028;-70
2023/01/17 05:32:06;;;;;;;9.25;7.38;;;4.50;99.90;;;;;;2108555;28;20035;-70
2023/01/17 05:33:08;;;;;;;8.73;7.93;;;4.50;99.90;;;;;;2109342;28;20483;-70
2023/01/17 05:34:10;;;;;;;10.80;7.93;;;4.50;99.90;;;;;;2109659;28;20031;-70
2023/01/17 05:35:10;;;;;;;9.40;7.40;;;4.50;99.90;;;;;;2108950;28;20107;-70
2023/01/17 05:36:11;;;;;;;9.68;7.20;;;4.50;99.90;;;;;;2109230;28;20034;-70
2023/01/17 05:37:11;;;;;;;8.27;7.47;;;4.50;99.90;;;;;;2107049;28;20115;-72
2023/01/17 05:38:12;;;;;;;12.45;7.63;;;4.50;99.90;;;;;;2107164;28;20483;-70
2023/01/17 05:39:12;;;;;;;10.80;6.78;;;4.50;99.90;;;;;;2107955;28;20103;-70
2023/01/17 05:40:13;;;;;;;7.70;6.47;;;4.50;99.90;;;;;;2106568;28;20827;-70
2023/01/17 05:41:14;;;;;;;8.43;7.63;;;4.50;99.90;;;;;;2109351;28;20034;-72
2023/01/17 05:42:14;;;;;;;8.32;7.53;;;4.50;99.90;;;;;;2108395;28;20043;-72
2023/01/17 05:43:15;;;;;;;10.85;8.18;;;4.50;99.90;;;;;;2109513;27;20486;-72
2023/01/17 05:44:15;;;;;;;8.68;7.78;;;4.50;99.90;;;;;;2106966;28;20035;-72
2023/01/17 05:45:18;;;;;;;9.32;8.32;;;4.50;99.90;;;;;;2110628;28;20038;-72
2023/01/17 05:46:18;;;;;;;9.80;8.40;;;4.50;99.90;;;;;;2109809;28;20024;-72
2023/01/17 05:47:19;;;;;;;9.43;8.50;;;4.50;99.90;;;;;;2109919;28;20669;-72
2023/01/17 05:48:19;;;;;;;9.00;8.10;;;4.50;99.90;;;;;;2108851;28;20031;-71
2023/01/17 05:49:20;;;;;;;9.25;8.23;;;4.50;99.90;;;;;;2109899;28;20036;-71
2023/01/17 05:50:26;;;;;;;9.10;7.97;;;4.50;99.90;;;;;;2107401;27;20028;-71
2023/01/17 05:51:28;;;;;;;7.90;7.20;;;4.50;99.90;;;;;;2110862;28;20032;-71
2023/01/17 05:52:28;;;;;;;9.02;8.27;;;4.50;99.90;;;;;;2110232;28;20020;-71
2023/01/17 05:53:29;;;;;;;12.30;8.63;;;4.50;99.90;;;;;;2108953;28;20112;-71
2023/01/17 05:54:29;;;;;;;8.32;7.53;;;4.50;99.90;;;;;;2108491;28;20027;-71
2023/01/17 05:55:30;;;;;;;8.02;7.22;;;4.50;99.90;;;;;;2107457;28;20388;-72
2023/01/17 05:56:32;;;;;;;9.10;8.20;;;4.50;99.90;;;;;;2108394;28;20475;-71
2023/01/17 05:57:33;;;;;;;10.38;8.85;;;4.50;99.90;;;;;;2108215;28;20520;-71
2023/01/17 05:58:33;;;;;;;8.52;7.72;;;4.60;99.90;;;;;;2108106;28;20037;-71
2023/01/17 05:59:34;;;;;;;8.90;7.53;;;4.50;99.90;;;;;;2108169;28;20031;-71
2023/01/17 06:00:36;;;;;;;9.43;7.82;;;4.50;99.90;;;;;;2108834;28;20024;-71
2023/01/17 06:01:36;;;;;;;8.27;7.45;;;4.50;99.90;;;;;;2106991;28;20119;-71
2023/01/17 06:02:37;;;;;;;8.35;7.55;;;4.60;99.90;;;;;;2108738;27;20027;-72
2023/01/17 06:03:37;;;;;;;11.15;7.88;;;4.60;99.90;;;;;;2107522;28;20146;-71
2023/01/17 06:04:38;;;;;;;10.57;7.18;;;4.60;99.90;;;;;;2110234;28;20142;-71
2023/01/17 06:05:38;;;;;;;7.88;7.07;;;4.60;99.90;;;;;;2108629;28;20031;-71
2023/01/17 06:06:39;;;;;;;8.43;7.45;;;4.60;99.90;;;;;;2109835;28;20025;-71
2023/01/17 06:07:43;;;;;;;8.05;7.25;;;4.60;99.90;;;;;;2108797;28;20024;-71
2023/01/17 06:08:44;;;;;;;7.82;7.10;;;4.60;99.90;;;;;;2109111;28;20020;-71
2023/01/17 06:09:45;;;;;;;8.38;6.75;;;4.60;99.90;;;;;;2109204;27;20025;-71
2023/01/17 06:10:46;;;;;;;9.00;6.45;;;4.60;99.90;;;;;;2109024;28;20016;-71
2023/01/17 06:11:46;;;;;;;9.07;6.63;;;4.60;99.90;;;;;;2110035;28;20020;-71
2023/01/17 06:12:48;;;;;;;7.55;5.47;;;4.60;99.90;;;;;;2111556;28;20020;-71
2023/01/17 06:13:48;;;;;;;8.05;5.80;;;4.60;99.90;;;;;;2110727;28;20020;-71
2023/01/17 06:14:49;;;;;;;10.57;6.35;;;4.60;99.90;;;;;;2109559;28;20100;-71
2023/01/17 06:15:49;;;;;;;6.68;6.00;;;4.60;99.90;;;;;;2108961;28;20027;-71
2023/01/17 06:16:50;;;;;;;9.45;6.10;;;4.60;99.90;;;;;;2109615;28;20050;-71
2023/01/17 06:17:50;;;;;;;8.48;6.22;;;4.60;99.90;;;;;;2109619;28;20020;-71
2023/01/17 06:18:51;;;;;;;6.10;5.50;;;4.60;99.90;;;;;;2103257;28;20020;-71
2023/01/17 06:19:51;;;;;;;9.55;5.90;;;4.60;99.90;;;;;;2107571;28;20096;-71
2023/01/17 06:20:55;;;;;;;7.65;5.85;;;4.60;99.90;;;;;;2107201;28;20520;-71
2023/01/17 06:21:56;;;;;;;8.90;6.25;;;4.60;99.90;;;;;;2108455;28;20077;-71
2023/01/17 06:23:00;;;;;;;6.60;6.00;;;4.50;99.90;;;;;;2107249;28;20024;-71
2023/01/17 06:24:01;;;;;;;10.23;5.68;;;4.50;99.90;;;;;;2109102;28;20012;-71
2023/01/17 06:25:02;;;;;;;7.22;5.93;;;4.50;99.90;;;;;;2108012;28;20700;-71
2023/01/17 06:26:03;;;;;;;8.45;6.13;;;4.50;99.90;;;;;;2108558;28;20493;-71
2023/01/17 06:27:03;;;;;;;8.65;6.40;;;4.50;99.90;;;;;;2109031;28;20461;-71
2023/01/17 06:28:05;;;;;;;9.40;6.13;;;4.50;99.90;;;;;;2108702;28;20028;-72
2023/01/17 06:29:06;;;;;;;9.82;6.65;;;4.60;99.90;;;;;;2108698;28;20036;-72
2023/01/17 06:30:07;;;;;;;9.43;6.10;;;4.50;99.90;;;;;;2108376;28;20485;-71
2023/01/17 06:31:08;;;;;;;9.88;6.40;;;4.60;99.90;;;;;;2109963;28;20038;-71
2023/01/17 06:32:08;;;;;;;10.82;6.47;;;4.50;99.90;;;;;;2106749;28;20015;-71
2023/01/17 06:33:10;;;;;;;9.27;7.85;;;4.50;99.90;;;;;;2108509;28;20035;-71
2023/01/17 06:34:10;;;;;;;9.85;7.13;;;4.50;99.90;;;;;;2109475;28;20039;-71
2023/01/17 06:35:11;;;;;;;11.68;8.25;;;4.50;99.90;;;;;;2108654;28;20043;-71
2023/01/17 06:36:11;;;;;;;9.82;7.32;;;4.60;99.90;;;;;;2108405;28;20032;-71
2023/01/17 06:37:12;;;;;;;8.40;7.38;;;4.60;99.90;;;;;;2108466;28;20652;-71
2023/01/17 06:38:12;;;;;;;12.82;7.72;;;4.60;99.90;;;;;;2108234;28;20019;-71
2023/01/17 06:39:13;;;;;;;10.02;8.52;;;4.60;99.90;;;;;;2102155;28;20020;-71
2023/01/17 06:40:14;;;;;;;11.02;8.35;;;4.60;99.90;;;;;;2110115;28;20080;-71
2023/01/17 06:41:14;;;;;;;10.38;8.88;;;4.60;99.90;;;;;;2107026;27;20028;-71
2023/01/17 06:42:15;;;;;;;8.75;7.20;;;4.60;99.90;;;;;;2108526;28;20072;-71
2023/01/17 06:43:15;;;;;;;10.38;8.90;;;4.60;99.90;;;;;;2109349;28;20050;-71
2023/01/17 06:44:16;;;;;;;12.55;9.57;;;4.60;99.90;;;;;;2106812;28;20021;-71
2023/01/17 06:45:17;;;;;;;13.70;9.40;;;4.60;99.90;;;;;;2108030;28;20024;-72
2023/01/17 06:46:18;;;;;;;12.32;9.27;;;4.60;99.90;;;;;;2107473;28;20123;-72
2023/01/17 06:47:19;;;;;;;10.88;9.27;;;4.50;99.90;;;;;;2107447;28;20020;-72
2023/01/17 06:48:19;;;;;;;10.65;8.75;;;4.50;99.90;;;;;;2106819;28;20160;-71
2023/01/17 06:49:19;;;;;;;10.75;9.65;;;4.50;99.90;;;;;;2108785;28;20088;-71
2023/01/17 06:50:20;;;;;;;12.18;9.65;;;4.50;99.90;;;;;;2109438;28;20020;-71
2023/01/17 06:51:21;;;;;;;15.70;9.73;;;4.50;99.90;;;;;;2109347;28;20028;-71
2023/01/17 06:52:21;;;;;;;12.88;9.88;;;4.50;99.90;;;;;;2107485;28;20031;-71
2023/01/17 06:53:22;;;;;;;13.00;10.23;;;4.50;99.90;;;;;;2107599;28;20111;-71